sensor_id;sensor_type;location;lat;lon;timestamp;pressure;altitude;pressure_sealevel;temperature;humidity
59194;BME280;44967;48.598;15.650;2022-11-11T00:01:12;99739.78;;;8.11;56.56
59194;BME280;44967;48.598;15.650;2022-11-11T00:03:38;99751.16;;;8.13;56.36
59194;BME280;44967;48.598;15.650;2022-11-11T00:06:07;99734.44;;;8.06;56.42
59194;BME280;44967;48.598;15.650;2022-11-11T00:08:34;99728.69;;;8.07;56.66
59194;BME280;44967;48.598;15.650;2022-11-11T00:11:02;99731.81;;;8.01;56.77
59194;BME280;44967;48.598;15.650;2022-11-11T00:13:28;99725.09;;;7.84;56.77
59194;BME280;44967;48.598;15.650;2022-11-11T00:15:54;99728.00;;;8.02;56.83
59194;BME280;44967;48.598;15.650;2022-11-11T00:18:20;99714.19;;;8.12;57.18
59194;BME280;44967;48.598;15.650;2022-11-11T00:21:12;99710.50;;;8.31;54.53
59194;BME280;44967;48.598;15.650;2022-11-11T00:23:57;99718.66;;;8.31;55.81
59194;BME280;44967;48.598;15.650;2022-11-11T00:26:41;99708.41;;;8.28;54.99
59194;BME280;44967;48.598;15.650;2022-11-11T00:29:07;99717.31;;;7.91;55.47
59194;BME280;44967;48.598;15.650;2022-11-11T00:31:36;99705.84;;;7.80;56.70
59194;BME280;44967;48.598;15.650;2022-11-11T00:34:21;99698.31;;;7.63;57.21
59194;BME280;44967;48.598;15.650;2022-11-11T00:36:47;99703.22;;;7.61;56.82
59194;BME280;44967;48.598;15.650;2022-11-11T00:39:13;99727.53;;;7.72;57.48
59194;BME280;44967;48.598;15.650;2022-11-11T00:41:38;99702.34;;;7.52;57.08
59194;BME280;44967;48.598;15.650;2022-11-11T00:44:04;99703.84;;;7.58;57.07
59194;BME280;44967;48.598;15.650;2022-11-11T00:46:30;99700.03;;;7.31;56.32
59194;BME280;44967;48.598;15.650;2022-11-11T00:49:14;99700.72;;;7.23;57.88
59194;BME280;44967;48.598;15.650;2022-11-11T00:52:01;99711.88;;;7.35;56.55
59194;BME280;44967;48.598;15.650;2022-11-11T00:54:27;99701.22;;;7.39;57.40
59194;BME280;44967;48.598;15.650;2022-11-11T00:56:53;99700.72;;;7.23;58.08
59194;BME280;44967;48.598;15.650;2022-11-11T00:59:18;99716.91;;;7.42;58.48
59194;BME280;44967;48.598;15.650;2022-11-11T01:01:44;99720.94;;;7.45;57.09
59194;BME280;44967;48.598;15.650;2022-11-11T01:04:10;99727.41;;;7.35;56.79
59194;BME280;44967;48.598;15.650;2022-11-11T01:06:36;99721.66;;;7.36;57.03
59194;BME280;44967;48.598;15.650;2022-11-11T01:09:06;99739.41;;;7.48;56.24
59194;BME280;44967;48.598;15.650;2022-11-11T01:11:32;99737.88;;;7.55;56.98
59194;BME280;44967;48.598;15.650;2022-11-11T01:13:58;99740.50;;;7.47;57.26
59194;BME280;44967;48.598;15.650;2022-11-11T01:16:25;99730.91;;;7.35;57.39
59194;BME280;44967;48.598;15.650;2022-11-11T01:18:52;99732.03;;;7.34;56.83
59194;BME280;44967;48.598;15.650;2022-11-11T01:21:21;99736.75;;;7.43;57.15
59194;BME280;44967;48.598;15.650;2022-11-11T01:23:47;99726.94;;;7.13;57.89
59194;BME280;44967;48.598;15.650;2022-11-11T01:26:23;99726.25;;;7.22;58.19
59194;BME280;44967;48.598;15.650;2022-11-11T01:28:50;99727.69;;;7.19;58.14
59194;BME280;44967;48.598;15.650;2022-11-11T01:31:18;99737.03;;;7.13;58.41
59194;BME280;44967;48.598;15.650;2022-11-11T01:33:46;99722.72;;;7.07;57.10
59194;BME280;44967;48.598;15.650;2022-11-11T01:36:17;99741.25;;;7.19;57.70
59194;BME280;44967;48.598;15.650;2022-11-11T01:38:43;99726.44;;;7.11;57.54
59194;BME280;44967;48.598;15.650;2022-11-11T01:41:15;99718.78;;;7.13;57.55
59194;BME280;44967;48.598;15.650;2022-11-11T01:46:49;99719.00;;;7.17;56.28
59194;BME280;44967;48.598;15.650;2022-11-11T01:52:24;99728.75;;;7.18;57.35
59194;BME280;44967;48.598;15.650;2022-11-11T01:55:11;99714.47;;;7.12;56.12
59194;BME280;44967;48.598;15.650;2022-11-11T02:00:11;99735.41;;;7.12;56.87
59194;BME280;44967;48.598;15.650;2022-11-11T02:02:45;99737.53;;;7.15;56.51
59194;BME280;44967;48.598;15.650;2022-11-11T02:05:14;99717.38;;;7.16;56.70
59194;BME280;44967;48.598;15.650;2022-11-11T02:07:59;99743.88;;;7.24;56.83
59194;BME280;44967;48.598;15.650;2022-11-11T02:10:27;99729.16;;;7.11;56.94
59194;BME280;44967;48.598;15.650;2022-11-11T02:12:54;99729.28;;;6.87;57.17
59194;BME280;44967;48.598;15.650;2022-11-11T02:15:39;99706.94;;;6.76;56.96
59194;BME280;44967;48.598;15.650;2022-11-11T02:18:05;99732.09;;;6.82;56.73
59194;BME280;44967;48.598;15.650;2022-11-11T02:20:42;99744.84;;;6.81;58.28
59194;BME280;44967;48.598;15.650;2022-11-11T02:23:15;99736.72;;;6.81;56.61
59194;BME280;44967;48.598;15.650;2022-11-11T02:25:47;99704.88;;;6.68;57.48
59194;BME280;44967;48.598;15.650;2022-11-11T02:28:14;99704.69;;;6.64;56.75
59194;BME280;44967;48.598;15.650;2022-11-11T02:30:40;99697.75;;;6.72;56.52
59194;BME280;44967;48.598;15.650;2022-11-11T02:33:06;99693.69;;;6.55;56.19
59194;BME280;44967;48.598;15.650;2022-11-11T02:35:37;99708.72;;;6.48;57.10
59194;BME280;44967;48.598;15.650;2022-11-11T02:38:06;99699.19;;;6.50;57.33
59194;BME280;44967;48.598;15.650;2022-11-11T02:40:42;99709.06;;;6.60;56.95
59194;BME280;44967;48.598;15.650;2022-11-11T02:43:27;99699.09;;;6.55;57.56
59194;BME280;44967;48.598;15.650;2022-11-11T02:45:53;99702.81;;;6.59;56.89
59194;BME280;44967;48.598;15.650;2022-11-11T02:48:20;99721.75;;;6.65;56.20
59194;BME280;44967;48.598;15.650;2022-11-11T02:50:46;99724.84;;;6.77;56.80
59194;BME280;44967;48.598;15.650;2022-11-11T02:53:12;99719.47;;;6.72;57.08
59194;BME280;44967;48.598;15.650;2022-11-11T02:55:37;99721.31;;;6.57;55.25
59194;BME280;44967;48.598;15.650;2022-11-11T02:58:03;99747.53;;;6.67;56.29
59194;BME280;44967;48.598;15.650;2022-11-11T03:00:29;99744.09;;;6.62;57.26
59194;BME280;44967;48.598;15.650;2022-11-11T03:02:54;99744.59;;;6.44;57.17
59194;BME280;44967;48.598;15.650;2022-11-11T03:05:20;99733.66;;;6.30;58.37
59194;BME280;44967;48.598;15.650;2022-11-11T03:07:46;99751.41;;;6.42;56.98
59194;BME280;44967;48.598;15.650;2022-11-11T03:10:11;99760.38;;;6.62;57.39
59194;BME280;44967;48.598;15.650;2022-11-11T03:12:37;99759.41;;;6.52;56.51
59194;BME280;44967;48.598;15.650;2022-11-11T03:15:04;99759.03;;;6.40;56.69
59194;BME280;44967;48.598;15.650;2022-11-11T03:17:30;99784.81;;;6.62;56.28
59194;BME280;44967;48.598;15.650;2022-11-11T03:20:25;99792.63;;;6.63;56.81
59194;BME280;44967;48.598;15.650;2022-11-11T03:23:12;99789.34;;;6.66;55.11
59194;BME280;44967;48.598;15.650;2022-11-11T03:25:43;99773.72;;;6.39;56.65
59194;BME280;44967;48.598;15.650;2022-11-11T03:28:19;99766.38;;;6.39;55.97
59194;BME280;44967;48.598;15.650;2022-11-11T03:30:48;99769.53;;;6.47;56.07
59194;BME280;44967;48.598;15.650;2022-11-11T03:33:15;99776.22;;;6.54;57.72
59194;BME280;44967;48.598;15.650;2022-11-11T03:35:41;99763.75;;;6.53;55.98
59194;BME280;44967;48.598;15.650;2022-11-11T03:38:11;99766.91;;;6.41;54.65
59194;BME280;44967;48.598;15.650;2022-11-11T03:40:54;99770.84;;;6.30;56.88
59194;BME280;44967;48.598;15.650;2022-11-11T03:43:23;99770.16;;;6.19;57.32
59194;BME280;44967;48.598;15.650;2022-11-11T03:45:53;99791.88;;;6.38;56.77
59194;BME280;44967;48.598;15.650;2022-11-11T03:48:20;99774.72;;;6.43;57.62
59194;BME280;44967;48.598;15.650;2022-11-11T03:50:47;99766.50;;;6.29;56.62
59194;BME280;44967;48.598;15.650;2022-11-11T03:53:13;99772.13;;;6.13;57.36
59194;BME280;44967;48.598;15.650;2022-11-11T03:55:40;99766.34;;;5.96;56.54
59194;BME280;44967;48.598;15.650;2022-11-11T03:58:06;99785.41;;;6.15;58.82
59194;BME280;44967;48.598;15.650;2022-11-11T04:00:32;99769.81;;;6.01;58.12
59194;BME280;44967;48.598;15.650;2022-11-11T04:05:45;99772.16;;;6.33;57.14
59194;BME280;44967;48.598;15.650;2022-11-11T04:08:30;99777.31;;;6.34;57.56
59194;BME280;44967;48.598;15.650;2022-11-11T04:11:20;99761.06;;;6.10;56.84
59194;BME280;44967;48.598;15.650;2022-11-11T04:13:48;99785.78;;;6.27;57.05
59194;BME280;44967;48.598;15.650;2022-11-11T04:16:32;99764.28;;;6.12;57.34
59194;BME280;44967;48.598;15.650;2022-11-11T04:18:58;99770.66;;;6.21;57.82
59194;BME280;44967;48.598;15.650;2022-11-11T04:21:42;99761.56;;;6.12;58.13
59194;BME280;44967;48.598;15.650;2022-11-11T04:24:09;99759.03;;;6.21;57.54
59194;BME280;44967;48.598;15.650;2022-11-11T04:26:54;99776.84;;;6.27;56.63
59194;BME280;44967;48.598;15.650;2022-11-11T04:29:21;99749.50;;;5.99;56.79
59194;BME280;44967;48.598;15.650;2022-11-11T04:32:01;99783.38;;;6.26;56.70
59194;BME280;44967;48.598;15.650;2022-11-11T04:34:47;99757.25;;;6.11;57.97
59194;BME280;44967;48.598;15.650;2022-11-11T04:37:14;99752.97;;;6.04;57.60
59194;BME280;44967;48.598;15.650;2022-11-11T04:39:40;99762.53;;;6.21;56.49
59194;BME280;44967;48.598;15.650;2022-11-11T04:42:25;99772.72;;;6.10;57.01
59194;BME280;44967;48.598;15.650;2022-11-11T04:44:51;99785.06;;;6.22;56.49
59194;BME280;44967;48.598;15.650;2022-11-11T04:47:35;99763.81;;;6.04;56.89
59194;BME280;44967;48.598;15.650;2022-11-11T04:50:01;99752.81;;;5.96;56.77
59194;BME280;44967;48.598;15.650;2022-11-11T04:52:27;99768.75;;;5.97;56.30
59194;BME280;44967;48.598;15.650;2022-11-11T04:54:58;99769.63;;;5.93;59.55
59194;BME280;44967;48.598;15.650;2022-11-11T04:57:45;99775.91;;;6.17;58.93
59194;BME280;44967;48.598;15.650;2022-11-11T05:00:14;99772.28;;;6.03;57.28
59194;BME280;44967;48.598;15.650;2022-11-11T05:02:40;99763.50;;;6.11;58.33
59194;BME280;44967;48.598;15.650;2022-11-11T05:05:25;99771.84;;;6.15;57.93
59194;BME280;44967;48.598;15.650;2022-11-11T05:07:51;99786.38;;;6.24;58.40
59194;BME280;44967;48.598;15.650;2022-11-11T05:10:36;99779.03;;;6.25;58.17
59194;BME280;44967;48.598;15.650;2022-11-11T05:13:02;99796.72;;;6.22;57.94
59194;BME280;44967;48.598;15.650;2022-11-11T05:15:47;99782.72;;;6.15;58.31
59194;BME280;44967;48.598;15.650;2022-11-11T05:18:32;99790.72;;;6.25;57.51
59194;BME280;44967;48.598;15.650;2022-11-11T05:21:21;99809.34;;;6.32;57.68
59194;BME280;44967;48.598;15.650;2022-11-11T05:23:49;99796.31;;;6.34;57.47
59194;BME280;44967;48.598;15.650;2022-11-11T05:26:34;99805.56;;;6.33;56.75
59194;BME280;44967;48.598;15.650;2022-11-11T05:29:00;99804.28;;;6.25;57.29
59194;BME280;44967;48.598;15.650;2022-11-11T05:31:27;99807.50;;;6.27;56.87
59194;BME280;44967;48.598;15.650;2022-11-11T05:33:52;99815.72;;;6.22;57.50
59194;BME280;44967;48.598;15.650;2022-11-11T05:36:18;99824.94;;;6.21;57.96
59194;BME280;44967;48.598;15.650;2022-11-11T05:38:44;99816.69;;;6.31;57.83
59194;BME280;44967;48.598;15.650;2022-11-11T05:41:10;99815.25;;;6.15;58.15
59194;BME280;44967;48.598;15.650;2022-11-11T05:43:36;99808.28;;;6.09;58.39
59194;BME280;44967;48.598;15.650;2022-11-11T05:46:02;99815.78;;;6.17;56.99
59194;BME280;44967;48.598;15.650;2022-11-11T05:48:30;99821.78;;;6.14;57.60
59194;BME280;44967;48.598;15.650;2022-11-11T05:50:59;99841.75;;;6.23;58.59
59194;BME280;44967;48.598;15.650;2022-11-11T05:53:24;99820.53;;;6.01;58.55
59194;BME280;44967;48.598;15.650;2022-11-11T05:55:50;99828.13;;;6.04;59.17
59194;BME280;44967;48.598;15.650;2022-11-11T05:58:17;99832.09;;;6.12;57.38
59194;BME280;44967;48.598;15.650;2022-11-11T06:00:43;99847.22;;;6.18;58.24
59194;BME280;44967;48.598;15.650;2022-11-11T06:03:08;99842.91;;;6.17;58.43
59194;BME280;44967;48.598;15.650;2022-11-11T06:05:37;99840.00;;;6.08;58.07
59194;BME280;44967;48.598;15.650;2022-11-11T06:08:04;99845.09;;;6.15;59.18
59194;BME280;44967;48.598;15.650;2022-11-11T06:10:29;99855.38;;;6.18;57.99
59194;BME280;44967;48.598;15.650;2022-11-11T06:12:58;99861.13;;;6.36;58.20
59194;BME280;44967;48.598;15.650;2022-11-11T06:15:30;99857.31;;;6.37;57.06
59194;BME280;44967;48.598;15.650;2022-11-11T06:17:57;99875.38;;;6.47;57.24
59194;BME280;44967;48.598;15.650;2022-11-11T06:20:23;99873.13;;;6.54;56.28
59194;BME280;44967;48.598;15.650;2022-11-11T06:22:49;99895.66;;;6.54;56.74
59194;BME280;44967;48.598;15.650;2022-11-11T06:25:24;99899.38;;;6.58;57.72
59194;BME280;44967;48.598;15.650;2022-11-11T06:28:08;99883.25;;;6.48;56.47
59194;BME280;44967;48.598;15.650;2022-11-11T06:30:34;99907.44;;;6.69;56.93
59194;BME280;44967;48.598;15.650;2022-11-11T06:33:00;99898.41;;;6.74;56.69
59194;BME280;44967;48.598;15.650;2022-11-11T06:35:26;99880.88;;;6.41;57.64
59194;BME280;44967;48.598;15.650;2022-11-11T06:37:52;99893.72;;;6.55;56.43
59194;BME280;44967;48.598;15.650;2022-11-11T06:40:17;99893.50;;;6.51;56.67
59194;BME280;44967;48.598;15.650;2022-11-11T06:42:44;99887.16;;;6.61;57.82
59194;BME280;44967;48.598;15.650;2022-11-11T06:45:09;99882.63;;;6.76;56.60
59194;BME280;44967;48.598;15.650;2022-11-11T06:47:35;99879.75;;;6.86;57.90
59194;BME280;44967;48.598;15.650;2022-11-11T06:50:01;99878.00;;;6.95;56.87
59194;BME280;44967;48.598;15.650;2022-11-11T06:52:26;99878.00;;;7.14;56.44
59194;BME280;44967;48.598;15.650;2022-11-11T06:54:53;99879.63;;;7.16;57.73
59194;BME280;44967;48.598;15.650;2022-11-11T06:57:21;99861.78;;;7.09;57.59
59194;BME280;44967;48.598;15.650;2022-11-11T06:59:47;99859.63;;;7.25;57.65
59194;BME280;44967;48.598;15.650;2022-11-11T07:02:13;99876.13;;;7.48;57.64
59194;BME280;44967;48.598;15.650;2022-11-11T07:04:39;99850.72;;;7.39;57.40
59194;BME280;44967;48.598;15.650;2022-11-11T07:07:05;99860.91;;;7.47;57.69
59194;BME280;44967;48.598;15.650;2022-11-11T07:09:30;99856.47;;;7.71;58.12
59194;BME280;44967;48.598;15.650;2022-11-11T07:11:56;99864.84;;;7.88;58.12
59194;BME280;44967;48.598;15.650;2022-11-11T07:14:21;99877.84;;;7.91;56.01
59194;BME280;44967;48.598;15.650;2022-11-11T07:16:47;99867.66;;;7.83;57.91
59194;BME280;44967;48.598;15.650;2022-11-11T07:19:13;99872.91;;;7.93;56.55
59194;BME280;44967;48.598;15.650;2022-11-11T07:21:38;99860.41;;;7.92;57.83
59194;BME280;44967;48.598;15.650;2022-11-11T07:24:04;99852.84;;;7.89;57.46
59194;BME280;44967;48.598;15.650;2022-11-11T07:26:30;99861.03;;;8.17;57.94
59194;BME280;44967;48.598;15.650;2022-11-11T07:28:56;99856.59;;;7.93;58.15
59194;BME280;44967;48.598;15.650;2022-11-11T07:31:21;99876.84;;;8.15;58.03
59194;BME280;44967;48.598;15.650;2022-11-11T07:33:47;99872.63;;;8.23;58.01
59194;BME280;44967;48.598;15.650;2022-11-11T07:36:13;99869.78;;;8.00;57.31
59194;BME280;44967;48.598;15.650;2022-11-11T07:38:38;99863.75;;;8.17;57.14
59194;BME280;44967;48.598;15.650;2022-11-11T07:41:04;99876.13;;;8.23;56.95
59194;BME280;44967;48.598;15.650;2022-11-11T07:43:30;99882.81;;;8.31;57.33
59194;BME280;44967;48.598;15.650;2022-11-11T07:45:55;99879.28;;;8.17;58.23
59194;BME280;44967;48.598;15.650;2022-11-11T07:48:21;99889.88;;;8.32;57.91
59194;BME280;44967;48.598;15.650;2022-11-11T07:50:52;99890.00;;;8.55;57.91
59194;BME280;44967;48.598;15.650;2022-11-11T07:53:19;99866.66;;;8.63;56.91
59194;BME280;44967;48.598;15.650;2022-11-11T07:55:45;99880.78;;;8.79;56.92
59194;BME280;44967;48.598;15.650;2022-11-11T07:58:11;99881.25;;;8.81;57.38
59194;BME280;44967;48.598;15.650;2022-11-11T08:00:37;99881.25;;;8.95;57.45
59194;BME280;44967;48.598;15.650;2022-11-11T08:03:03;99893.03;;;9.04;57.12
59194;BME280;44967;48.598;15.650;2022-11-11T08:05:29;99885.41;;;8.93;56.16
59194;BME280;44967;48.598;15.650;2022-11-11T08:07:55;99874.31;;;8.89;57.23
59194;BME280;44967;48.598;15.650;2022-11-11T08:10:20;99889.97;;;9.06;57.51
59194;BME280;44967;48.598;15.650;2022-11-11T08:12:52;99899.84;;;9.16;57.30
59194;BME280;44967;48.598;15.650;2022-11-11T08:15:36;99895.41;;;9.20;57.52
59194;BME280;44967;48.598;15.650;2022-11-11T08:18:02;99883.28;;;9.26;57.65
59194;BME280;44967;48.598;15.650;2022-11-11T08:20:28;99887.53;;;9.41;57.95
59194;BME280;44967;48.598;15.650;2022-11-11T08:22:54;99904.09;;;9.68;57.41
59194;BME280;44967;48.598;15.650;2022-11-11T08:25:22;99885.38;;;9.75;56.74
59194;BME280;44967;48.598;15.650;2022-11-11T08:27:48;99873.97;;;9.73;57.12
59194;BME280;44967;48.598;15.650;2022-11-11T08:30:14;99875.94;;;9.81;57.27
59194;BME280;44967;48.598;15.650;2022-11-11T08:32:40;99879.72;;;10.03;56.70
59194;BME280;44967;48.598;15.650;2022-11-11T08:35:06;99884.56;;;10.15;57.48
59194;BME280;44967;48.598;15.650;2022-11-11T08:37:31;99868.19;;;10.15;57.25
59194;BME280;44967;48.598;15.650;2022-11-11T08:39:57;99868.81;;;10.44;57.84
59194;BME280;44967;48.598;15.650;2022-11-11T08:42:23;99858.38;;;10.54;57.79
59194;BME280;44967;48.598;15.650;2022-11-11T08:44:49;99860.03;;;10.82;56.94
59194;BME280;44967;48.598;15.650;2022-11-11T08:47:16;99876.47;;;11.17;57.29
59194;BME280;44967;48.598;15.650;2022-11-11T08:49:42;99870.84;;;11.22;57.12
59194;BME280;44967;48.598;15.650;2022-11-11T08:52:07;99856.97;;;11.28;57.02
59194;BME280;44967;48.598;15.650;2022-11-11T08:54:33;99876.59;;;11.38;56.31
59194;BME280;44967;48.598;15.650;2022-11-11T08:56:59;99871.94;;;11.48;56.68
59194;BME280;44967;48.598;15.650;2022-11-11T08:59:24;99884.97;;;11.51;56.93
59194;BME280;44967;48.598;15.650;2022-11-11T09:01:50;99881.75;;;11.40;56.58
59194;BME280;44967;48.598;15.650;2022-11-11T09:04:15;99889.47;;;11.56;56.76
59194;BME280;44967;48.598;15.650;2022-11-11T09:06:41;99896.34;;;11.79;55.84
59194;BME280;44967;48.598;15.650;2022-11-11T09:09:10;99904.72;;;11.74;55.61
59194;BME280;44967;48.598;15.650;2022-11-11T09:11:36;99926.59;;;11.92;55.59
59194;BME280;44967;48.598;15.650;2022-11-11T09:14:02;99903.31;;;11.59;55.50
59194;BME280;44967;48.598;15.650;2022-11-11T09:16:27;99908.75;;;11.86;55.13
59194;BME280;44967;48.598;15.650;2022-11-11T09:18:53;99907.56;;;12.04;54.48
59194;BME280;44967;48.598;15.650;2022-11-11T09:21:19;99905.28;;;12.15;53.95
59194;BME280;44967;48.598;15.650;2022-11-11T09:23:44;99901.25;;;12.22;54.64
59194;BME280;44967;48.598;15.650;2022-11-11T09:26:10;99904.84;;;12.43;54.12
59194;BME280;44967;48.598;15.650;2022-11-11T09:28:36;99918.94;;;12.63;53.37
59194;BME280;44967;48.598;15.650;2022-11-11T09:31:02;99898.41;;;12.69;53.30
59194;BME280;44967;48.598;15.650;2022-11-11T09:33:29;99895.16;;;12.76;53.75
59194;BME280;44967;48.598;15.650;2022-11-11T09:35:56;99882.66;;;12.87;52.55
59194;BME280;44967;48.598;15.650;2022-11-11T09:38:23;99890.69;;;13.14;53.43
59194;BME280;44967;48.598;15.650;2022-11-11T09:41:06;99914.69;;;13.38;53.11
59194;BME280;44967;48.598;15.650;2022-11-11T09:43:50;99906.00;;;13.57;52.83
59194;BME280;44967;48.598;15.650;2022-11-11T09:46:36;99894.47;;;13.64;52.67
59194;BME280;44967;48.598;15.650;2022-11-11T09:49:31;99885.59;;;13.80;52.27
59194;BME280;44967;48.598;15.650;2022-11-11T09:57:18;99869.59;;;13.94;52.31
59194;BME280;44967;48.598;15.650;2022-11-11T09:59:52;99868.00;;;14.06;51.78
59194;BME280;44967;48.598;15.650;2022-11-11T10:05:01;99871.22;;;14.45;51.35
59194;BME280;44967;48.598;15.650;2022-11-11T10:07:50;99886.22;;;14.73;50.72
59194;BME280;44967;48.598;15.650;2022-11-11T10:12:49;99875.91;;;14.82;51.03
59194;BME280;44967;48.598;15.650;2022-11-11T10:15:17;99870.16;;;14.87;50.87
59194;BME280;44967;48.598;15.650;2022-11-11T10:17:59;99876.34;;;14.97;51.21
59194;BME280;44967;48.598;15.650;2022-11-11T10:20:31;99900.25;;;15.08;50.99
59194;BME280;44967;48.598;15.650;2022-11-11T10:23:37;99898.81;;;15.27;50.26
59194;BME280;44967;48.598;15.650;2022-11-11T10:26:01;99883.00;;;15.24;49.83
59194;BME280;44967;48.598;15.650;2022-11-11T10:28:33;99896.66;;;15.49;50.09
59194;BME280;44967;48.598;15.650;2022-11-11T10:31:03;99903.22;;;15.73;49.55
59194;BME280;44967;48.598;15.650;2022-11-11T10:34:12;99888.56;;;15.85;49.57
59194;BME280;44967;48.598;15.650;2022-11-11T10:36:21;99866.09;;;15.83;49.75
59194;BME280;44967;48.598;15.650;2022-11-11T10:38:55;99879.09;;;15.98;49.27
59194;BME280;44967;48.598;15.650;2022-11-11T10:44:27;99851.59;;;15.86;49.85
59194;BME280;44967;48.598;15.650;2022-11-11T10:50:01;99845.06;;;16.07;48.24
59194;BME280;44967;48.598;15.650;2022-11-11T10:55:39;99848.69;;;16.43;47.66
59194;BME280;44967;48.598;15.650;2022-11-11T10:58:21;99845.63;;;16.48;47.80
59194;BME280;44967;48.598;15.650;2022-11-11T11:00:50;99841.81;;;16.53;47.66
59194;BME280;44967;48.598;15.650;2022-11-11T11:03:54;99869.69;;;16.67;48.28
59194;BME280;44967;48.598;15.650;2022-11-11T11:06:33;99857.78;;;16.63;47.77
59194;BME280;44967;48.598;15.650;2022-11-11T11:12:30;99840.16;;;16.68;47.52
59194;BME280;44967;48.598;15.650;2022-11-11T11:15:05;99835.44;;;16.68;48.01
59194;BME280;44967;48.598;15.650;2022-11-11T11:17:41;99852.13;;;16.76;47.57
59194;BME280;44967;48.598;15.650;2022-11-11T11:20:18;99853.03;;;16.80;47.32
59194;BME280;44967;48.598;15.650;2022-11-11T11:22:49;99845.41;;;16.73;47.67
59194;BME280;44967;48.598;15.650;2022-11-11T11:25:17;99841.50;;;16.58;47.92
59194;BME280;44967;48.598;15.650;2022-11-11T11:27:44;99836.00;;;16.58;47.61
59194;BME280;44967;48.598;15.650;2022-11-11T11:30:24;99850.59;;;16.58;47.11
59194;BME280;44967;48.598;15.650;2022-11-11T11:32:57;99850.22;;;16.60;47.66
59194;BME280;44967;48.598;15.650;2022-11-11T11:35:33;99849.72;;;16.54;48.17
59194;BME280;44967;48.598;15.650;2022-11-11T11:37:59;99843.13;;;16.59;47.96
59194;BME280;44967;48.598;15.650;2022-11-11T11:40:25;99840.44;;;16.63;48.14
59194;BME280;44967;48.598;15.650;2022-11-11T11:42:51;99836.72;;;16.55;47.79
59194;BME280;44967;48.598;15.650;2022-11-11T11:45:28;99840.28;;;16.55;47.32
59194;BME280;44967;48.598;15.650;2022-11-11T11:50:49;99838.75;;;16.58;47.53
59194;BME280;44967;48.598;15.650;2022-11-11T11:56:38;99863.38;;;17.03;47.53
59194;BME280;44967;48.598;15.650;2022-11-11T12:10:30;99844.56;;;17.08;46.68
59194;BME280;44967;48.598;15.650;2022-11-11T12:15:58;99833.03;;;17.03;47.03
59194;BME280;44967;48.598;15.650;2022-11-11T12:19:00;99823.59;;;17.04;47.11
59194;BME280;44967;48.598;15.650;2022-11-11T12:24:41;99840.72;;;17.33;47.27
59194;BME280;44967;48.598;15.650;2022-11-11T12:30:06;99838.25;;;17.27;47.43
59194;BME280;44967;48.598;15.650;2022-11-11T12:32:43;99843.63;;;17.20;47.76
59194;BME280;44967;48.598;15.650;2022-11-11T12:41:00;99817.19;;;17.19;47.58
59194;BME280;44967;48.598;15.650;2022-11-11T12:51:39;99796.16;;;16.95;48.48
59194;BME280;44967;48.598;15.650;2022-11-11T12:54:26;99814.38;;;16.99;48.09
59194;BME280;44967;48.598;15.650;2022-11-11T12:57:01;99810.03;;;16.98;48.59
59194;BME280;44967;48.598;15.650;2022-11-11T12:59:44;99783.03;;;16.88;48.65
59194;BME280;44967;48.598;15.650;2022-11-11T13:05:29;99785.66;;;16.81;48.22
59194;BME280;44967;48.598;15.650;2022-11-11T13:08:17;99805.91;;;16.89;48.69
59194;BME280;44967;48.598;15.650;2022-11-11T13:16:32;99796.19;;;16.75;48.46
59194;BME280;44967;48.598;15.650;2022-11-11T13:19:10;99809.75;;;16.84;48.26
59194;BME280;44967;48.598;15.650;2022-11-11T13:22:02;99807.06;;;16.88;48.11
59194;BME280;44967;48.598;15.650;2022-11-11T13:24:34;99775.13;;;16.67;48.82
59194;BME280;44967;48.598;15.650;2022-11-11T13:27:19;99787.25;;;16.82;48.16
59194;BME280;44967;48.598;15.650;2022-11-11T13:33:19;99801.75;;;16.98;48.40
59194;BME280;44967;48.598;15.650;2022-11-11T13:35:58;99807.03;;;17.04;48.38
59194;BME280;44967;48.598;15.650;2022-11-11T13:38:27;99810.22;;;17.06;48.25
59194;BME280;44967;48.598;15.650;2022-11-11T13:40:56;99792.47;;;16.87;48.45
59194;BME280;44967;48.598;15.650;2022-11-11T13:45:57;99791.34;;;17.08;48.52
59194;BME280;44967;48.598;15.650;2022-11-11T13:48:30;99788.53;;;17.04;48.76
59194;BME280;44967;48.598;15.650;2022-11-11T13:51:28;99807.25;;;17.15;48.54
59194;BME280;44967;48.598;15.650;2022-11-11T13:53:57;99783.25;;;16.99;48.79
59194;BME280;44967;48.598;15.650;2022-11-11T13:56:37;99791.19;;;17.00;48.46
59194;BME280;44967;48.598;15.650;2022-11-11T13:59:04;99780.19;;;16.84;48.88
59194;BME280;44967;48.598;15.650;2022-11-11T14:01:35;99798.16;;;16.94;48.61
59194;BME280;44967;48.598;15.650;2022-11-11T14:04:06;99777.97;;;16.70;48.61
59194;BME280;44967;48.598;15.650;2022-11-11T14:08:58;99807.28;;;16.79;49.42
59194;BME280;44967;48.598;15.650;2022-11-11T14:13:54;99794.94;;;16.72;49.32
59194;BME280;44967;48.598;15.650;2022-11-11T14:19:12;99783.09;;;16.72;49.22
59194;BME280;44967;48.598;15.650;2022-11-11T14:24:51;99818.91;;;16.88;49.18
59194;BME280;44967;48.598;15.650;2022-11-11T14:27:23;99789.00;;;16.70;49.62
59194;BME280;44967;48.598;15.650;2022-11-11T14:29:53;99798.00;;;16.87;49.12
59194;BME280;44967;48.598;15.650;2022-11-11T14:40:34;99788.78;;;16.43;50.78
59194;BME280;44967;48.598;15.650;2022-11-11T14:43:33;99792.13;;;16.33;50.58
59194;BME280;44967;48.598;15.650;2022-11-11T14:46:04;99777.56;;;16.16;51.23
59194;BME280;44967;48.598;15.650;2022-11-11T14:48:54;99768.34;;;16.09;51.28
59194;BME280;44967;48.598;15.650;2022-11-11T14:51:44;99766.22;;;16.02;51.36
59194;BME280;44967;48.598;15.650;2022-11-11T14:54:21;99766.94;;;15.99;51.39
59194;BME280;44967;48.598;15.650;2022-11-11T14:56:57;99773.69;;;15.85;51.86
59194;BME280;44967;48.598;15.650;2022-11-11T14:59:26;99781.84;;;15.82;52.18
59194;BME280;44967;48.598;15.650;2022-11-11T15:01:54;99776.81;;;15.68;52.21
59194;BME280;44967;48.598;15.650;2022-11-11T15:04:20;99763.28;;;15.62;52.51
59194;BME280;44967;48.598;15.650;2022-11-11T15:06:52;99778.22;;;15.61;51.95